Time;durP1;ratioP1;P1;durP2;ratioP2;P2;SDS_P1;SDS_P2;PMS_P1;PMS_P2;Temp;Humidity;BMP_temperature;BMP_pressure;BME280_temperature;BME280_humidity;BME280_pressure;Samples;Min_cycle;Max_cycle;Signal;HPM_P1;HPM_P2
2022/08/10 00:01:11;;;;;;;4.53;3.22;;;17.30;99.90;;;;;;5080452;28;20036;-78
2022/08/10 00:03:37;;;;;;;3.88;2.90;;;17.30;99.90;;;;;;5080122;28;20066;-79
2022/08/10 00:06:03;;;;;;;3.05;2.63;;;17.30;99.90;;;;;;5061233;28;20517;-78
2022/08/10 00:08:29;;;;;;;6.32;3.15;;;17.30;99.90;;;;;;5080665;28;20247;-79
2022/08/10 00:10:55;;;;;;;3.20;2.58;;;17.30;99.90;;;;;;5080866;28;20479;-78
2022/08/10 00:13:22;;;;;;;3.60;2.72;;;17.20;99.90;;;;;;5079862;28;20059;-78
2022/08/10 00:15:48;;;;;;;4.50;3.22;;;17.20;99.90;;;;;;5080204;28;20040;-78
2022/08/10 00:18:14;;;;;;;3.45;2.97;;;17.20;99.90;;;;;;5080014;28;20537;-78
2022/08/10 00:20:39;;;;;;;3.42;2.55;;;17.20;99.90;;;;;;5061068;28;20108;-78
2022/08/10 00:23:05;;;;;;;2.80;2.25;;;17.20;99.90;;;;;;5080157;28;20113;-78
2022/08/10 00:25:31;;;;;;;2.45;2.08;;;17.10;99.90;;;;;;5080055;28;20436;-78
2022/08/10 00:27:56;;;;;;;2.45;2.15;;;17.10;99.90;;;;;;5061465;28;20048;-78
2022/08/10 00:30:22;;;;;;;5.25;3.10;;;17.10;99.90;;;;;;5061868;28;20052;-78
2022/08/10 00:32:47;;;;;;;3.05;2.60;;;17.10;99.90;;;;;;5079547;28;20558;-78
2022/08/10 00:35:13;;;;;;;4.18;3.03;;;17.20;99.90;;;;;;5078223;28;20059;-79
2022/08/10 00:37:38;;;;;;;3.10;2.40;;;17.10;99.90;;;;;;5079183;28;20052;-78
2022/08/10 00:40:05;;;;;;;2.22;1.35;;;17.10;99.90;;;;;;5079952;28;20059;-79
2022/08/10 00:42:31;;;;;;;4.30;2.78;;;17.10;99.90;;;;;;5079025;28;20047;-78
2022/08/10 00:44:56;;;;;;;3.65;2.17;;;17.10;99.90;;;;;;5080010;28;20040;-78
2022/08/10 00:47:22;;;;;;;3.70;3.05;;;17.10;99.90;;;;;;5079245;28;20094;-78
2022/08/10 00:49:48;;;;;;;4.10;2.63;;;17.10;99.90;;;;;;5078036;28;20090;-78
2022/08/10 00:52:15;;;;;;;3.10;2.38;;;17.10;99.90;;;;;;5079254;28;20111;-78
2022/08/10 00:54:42;;;;;;;4.35;2.42;;;17.20;99.90;;;;;;5079136;28;20660;-78
2022/08/10 00:57:08;;;;;;;3.42;2.42;;;17.10;99.90;;;;;;5060589;28;20101;-78
2022/08/10 00:59:34;;;;;;;3.28;2.97;;;17.10;99.90;;;;;;5079315;28;20043;-78
2022/08/10 01:02:00;;;;;;;3.58;2.85;;;17.10;99.90;;;;;;5079558;28;20051;-78
2022/08/10 01:07:17;;;;;;;2.90;2.53;;;17.10;99.90;;;;;;5062726;22;20062;-78
2022/08/10 01:10:15;;;;;;;4.07;2.50;;;17.10;99.90;;;;;;5040861;28;20125;-78
2022/08/10 01:12:53;;;;;;;4.03;2.00;;;17.10;99.90;;;;;;4994859;28;20497;-78
2022/08/10 01:15:35;;;;;;;4.97;2.22;;;17.10;99.90;;;;;;5058609;28;20037;-78
2022/08/10 01:18:29;;;;;;;3.20;2.78;;;17.10;99.90;;;;;;5059205;28;20393;-78
2022/08/10 01:21:28;;;;;;;2.97;2.40;;;17.10;99.90;;;;;;5040062;28;20101;-79
2022/08/10 01:24:31;;;;;;;4.03;3.10;;;17.10;99.90;;;;;;5040756;28;20040;-78
2022/08/10 01:27:26;;;;;;;2.60;2.13;;;17.10;99.90;;;;;;5040554;28;20324;-78
2022/08/10 01:30:06;;;;;;;4.00;2.88;;;17.10;99.90;;;;;;5058694;28;20115;-78
2022/08/10 01:32:41;;;;;;;4.53;2.55;;;17.10;99.90;;;;;;5024108;28;20414;-78
2022/08/10 01:35:30;;;;;;;4.18;2.95;;;17.00;99.90;;;;;;5039910;28;20047;-78
2022/08/10 01:38:10;;;;;;;2.85;2.55;;;17.00;99.90;;;;;;5058269;28;20362;-78
2022/08/10 01:40:48;;;;;;;3.70;1.90;;;17.00;99.90;;;;;;5040603;28;20157;-78
2022/08/10 01:43:16;;;;;;;5.00;3.55;;;16.90;99.90;;;;;;5058295;28;20501;-78
2022/08/10 01:45:43;;;;;;;5.18;3.53;;;17.00;99.90;;;;;;5040675;28;20037;-78
2022/08/10 01:48:27;;;;;;;3.65;2.97;;;17.00;99.90;;;;;;5040635;28;20478;-79
2022/08/10 01:50:57;;;;;;;4.28;2.95;;;16.90;99.90;;;;;;5057049;28;20545;-78
2022/08/10 01:53:29;;;;;;;4.15;3.28;;;16.90;99.90;;;;;;5057864;28;20041;-78
2022/08/10 01:55:56;;;;;;;8.70;3.70;;;16.90;99.90;;;;;;5058328;28;20106;-78
2022/08/10 01:58:24;;;;;;;3.42;3.08;;;16.90;99.90;;;;;;5058325;28;20037;-78
2022/08/10 02:00:50;;;;;;;4.18;3.75;;;16.80;99.90;;;;;;5057957;28;20132;-78
2022/08/10 02:03:18;;;;;;;4.85;3.55;;;16.80;99.90;;;;;;5058593;28;20127;-79
2022/08/10 02:05:48;;;;;;;6.80;4.10;;;16.80;99.90;;;;;;5057353;28;20082;-78
2022/08/10 02:08:16;;;;;;;5.78;4.10;;;16.80;99.90;;;;;;5058204;28;20151;-78
2022/08/10 02:10:44;;;;;;;5.78;3.45;;;16.70;99.90;;;;;;5058057;28;20498;-78
2022/08/10 02:13:11;;;;;;;4.05;3.15;;;16.70;99.90;;;;;;5057955;28;20048;-78
2022/08/10 02:15:42;;;;;;;4.82;3.30;;;16.70;99.90;;;;;;5040260;28;20494;-78
2022/08/10 02:18:08;;;;;;;5.32;2.60;;;16.70;99.90;;;;;;5058435;28;20066;-78
2022/08/10 02:20:40;;;;;;;7.00;4.47;;;16.70;99.90;;;;;;5057727;28;20040;-78
2022/08/10 02:23:10;;;;;;;5.93;3.23;;;16.60;99.90;;;;;;5058514;28;20049;-78
2022/08/10 02:25:38;;;;;;;6.30;3.25;;;16.60;99.90;;;;;;5058265;28;20282;-78
2022/08/10 02:28:06;;;;;;;3.22;2.97;;;16.60;99.90;;;;;;5058523;28;20313;-78
2022/08/10 02:30:32;;;;;;;10.40;4.80;;;16.60;99.90;;;;;;5040530;28;20093;-78
2022/08/10 02:33:00;;;;;;;9.18;3.20;;;16.60;99.90;;;;;;5057675;28;20052;-78
2022/08/10 02:35:27;;;;;;;4.72;3.25;;;16.60;99.90;;;;;;5057262;28;20041;-78
2022/08/10 02:38:00;;;;;;;4.57;3.70;;;16.60;99.90;;;;;;5039896;28;20287;-78
2022/08/10 02:40:30;;;;;;;4.10;3.55;;;16.50;99.90;;;;;;5039877;28;20088;-78
2022/08/10 02:43:25;;;;;;;5.22;3.78;;;16.50;99.90;;;;;;5057737;28;20040;-78
2022/08/10 02:46:09;;;;;;;5.28;3.72;;;16.60;99.90;;;;;;5057093;28;20944;-78
2022/08/10 02:48:42;;;;;;;6.70;4.35;;;16.60;99.90;;;;;;5040180;28;20048;-78
2022/08/10 02:51:18;;;;;;;5.30;3.72;;;16.50;99.90;;;;;;5022473;28;20114;-78
2022/08/10 02:53:59;;;;;;;9.00;5.47;;;16.50;99.90;;;;;;5057961;28;20067;-78
2022/08/10 02:56:34;;;;;;;5.82;4.47;;;16.60;99.90;;;;;;5039934;28;20543;-78
2022/08/10 02:59:13;;;;;;;5.22;4.40;;;16.50;99.90;;;;;;5057493;28;20131;-78
2022/08/10 03:01:45;;;;;;;5.78;4.70;;;16.50;99.90;;;;;;5042061;28;20068;-77
2022/08/10 03:04:15;;;;;;;;;;;16.50;99.90;;;;;;5061282;28;20040;-78
2022/08/10 03:06:46;;;;;;;5.95;4.20;;;16.50;99.90;;;;;;5042761;28;19931;-78
2022/08/10 03:09:15;;;;;;;5.10;3.53;;;16.50;99.90;;;;;;5043672;28;20036;-78
2022/08/10 03:11:43;;;;;;;7.30;4.80;;;16.50;99.90;;;;;;5043215;28;20098;-78
2022/08/10 03:14:10;;;;;;;9.88;5.43;;;16.50;99.90;;;;;;5061479;28;20180;-78
2022/08/10 03:16:37;;;;;;;8.73;5.38;;;16.50;99.90;;;;;;5061396;28;20052;-78
2022/08/10 03:19:05;;;;;;;7.95;6.05;;;16.50;99.90;;;;;;5042789;28;20398;-78
2022/08/10 03:21:32;;;;;;;5.90;4.93;;;16.50;99.90;;;;;;5060252;28;20040;-78
2022/08/10 03:24:01;;;;;;;6.10;4.47;;;16.50;99.90;;;;;;5042932;28;20052;-78
2022/08/10 03:26:29;;;;;;;8.55;6.00;;;16.50;99.90;;;;;;5060808;28;20079;-78
2022/08/10 03:28:57;;;;;;;10.88;6.57;;;16.50;99.90;;;;;;5043170;28;20435;-78
2022/08/10 03:31:25;;;;;;;7.70;5.47;;;16.50;99.90;;;;;;5060474;28;20110;-78
2022/08/10 03:33:52;;;;;;;6.35;4.95;;;16.50;99.90;;;;;;5042865;28;20071;-78
2022/08/10 03:36:17;;;;;;;7.53;4.95;;;16.40;99.90;;;;;;5060095;28;20483;-78
2022/08/10 03:38:47;;;;;;;7.00;5.38;;;16.40;99.90;;;;;;5060598;28;20085;-78
2022/08/10 03:41:15;;;;;;;7.18;5.03;;;16.40;99.90;;;;;;5060955;28;20431;-78
2022/08/10 03:43:43;;;;;;;10.48;5.72;;;16.40;99.90;;;;;;5060875;28;20472;-78
2022/08/10 03:46:11;;;;;;;6.55;4.60;;;16.40;99.90;;;;;;5042454;28;20329;-78
2022/08/10 03:48:38;;;;;;;7.65;4.95;;;16.40;99.90;;;;;;5061085;28;20445;-78
2022/08/10 03:51:07;;;;;;;6.72;4.50;;;16.30;99.90;;;;;;5059089;28;20079;-78
2022/08/10 03:53:34;;;;;;;6.32;4.00;;;16.40;99.90;;;;;;5060279;28;20040;-78
2022/08/10 03:56:00;;;;;;;8.63;5.00;;;16.30;99.90;;;;;;5060626;28;20506;-78
2022/08/10 03:58:26;;;;;;;7.22;5.60;;;16.30;99.90;;;;;;5059889;28;20041;-78
2022/08/10 04:00:52;;;;;;;7.95;4.60;;;16.30;99.90;;;;;;5060215;28;20113;-78
2022/08/10 04:03:17;;;;;;;6.25;4.45;;;16.30;99.90;;;;;;5060099;28;20048;-78
2022/08/10 04:05:44;;;;;;;6.45;4.85;;;16.30;99.90;;;;;;5040760;28;20143;-78
2022/08/10 04:08:09;;;;;;;7.90;5.20;;;16.30;99.90;;;;;;5042583;28;20098;-78
2022/08/10 04:10:35;;;;;;;7.18;5.63;;;16.20;99.90;;;;;;5059892;28;20441;-78
2022/08/10 04:13:00;;;;;;;5.30;3.95;;;16.20;99.90;;;;;;5041109;28;20128;-78
2022/08/10 04:15:26;;;;;;;7.35;5.82;;;16.20;99.90;;;;;;5041957;28;20402;-78
2022/08/10 04:17:52;;;;;;;5.40;4.20;;;16.20;99.90;;;;;;5060106;28;20040;-78
2022/08/10 04:20:27;;;;;;;6.03;4.70;;;16.20;99.90;;;;;;5024593;28;20052;-79
2022/08/10 04:22:55;;;;;;;9.75;5.80;;;16.20;99.90;;;;;;5060279;28;20072;-78
2022/08/10 04:25:22;;;;;;;6.80;4.32;;;16.20;99.90;;;;;;5059810;28;20041;-79
2022/08/10 04:27:49;;;;;;;9.35;5.20;;;16.20;99.90;;;;;;5059378;28;20146;-78
2022/08/10 04:30:15;;;;;;;7.65;5.80;;;16.20;99.90;;;;;;5060016;28;20041;-78
2022/08/10 04:32:44;;;;;;;8.73;5.63;;;16.20;99.90;;;;;;5060132;28;20039;-78
2022/08/10 04:35:12;;;;;;;10.90;5.05;;;16.20;99.90;;;;;;5041354;28;20037;-78
2022/08/10 04:37:40;;;;;;;3.53;3.15;;;16.20;99.90;;;;;;5041851;28;20102;-78
2022/08/10 04:40:06;;;;;;;8.60;4.90;;;16.20;99.90;;;;;;5059152;28;20048;-78
2022/08/10 04:42:32;;;;;;;9.50;4.55;;;16.20;99.90;;;;;;5059398;28;20495;-78
2022/08/10 04:44:58;;;;;;;4.63;4.10;;;16.20;99.90;;;;;;5041698;28;20403;-78
2022/08/10 04:47:24;;;;;;;10.20;5.63;;;16.20;99.90;;;;;;5059210;28;20033;-78
2022/08/10 04:49:49;;;;;;;7.22;5.28;;;16.20;99.90;;;;;;5058878;28;20469;-78
2022/08/10 04:52:16;;;;;;;9.13;5.93;;;16.20;99.90;;;;;;5059255;28;20048;-78
2022/08/10 04:54:41;;;;;;;8.80;5.82;;;16.20;99.90;;;;;;5059644;28;20252;-78
2022/08/10 04:57:07;;;;;;;5.85;5.25;;;16.20;99.90;;;;;;5059584;28;20399;-78
2022/08/10 04:59:32;;;;;;;12.68;5.03;;;16.20;99.90;;;;;;5059545;28;20040;-78
2022/08/10 05:01:58;;;;;;;6.78;5.00;;;16.30;99.90;;;;;;5059176;28;20060;-78
2022/08/10 05:04:23;;;;;;;8.95;6.45;;;16.30;99.90;;;;;;5040237;28;20055;-78
2022/08/10 05:06:49;;;;;;;14.60;5.68;;;16.30;99.90;;;;;;5059092;28;20238;-78
2022/08/10 05:09:14;;;;;;;6.28;5.40;;;16.40;99.90;;;;;;5059314;28;20470;-78
2022/08/10 05:11:40;;;;;;;6.10;4.82;;;16.40;99.90;;;;;;5041204;28;20154;-78
2022/08/10 05:14:06;;;;;;;7.38;4.63;;;16.40;99.90;;;;;;5059001;28;20048;-78
2022/08/10 05:16:31;;;;;;;6.15;5.47;;;16.40;99.90;;;;;;5058612;28;20523;-78
2022/08/10 05:18:57;;;;;;;7.78;5.43;;;16.50;99.90;;;;;;5040113;28;20139;-78
2022/08/10 05:21:22;;;;;;;5.57;3.78;;;16.40;99.90;;;;;;5041078;28;20056;-78
2022/08/10 05:23:48;;;;;;;5.40;3.78;;;16.50;99.90;;;;;;5057596;28;20240;-78
2022/08/10 05:26:13;;;;;;;6.45;4.07;;;16.60;99.90;;;;;;5058760;28;20123;-78
2022/08/10 05:28:39;;;;;;;6.78;4.55;;;16.60;99.90;;;;;;5040902;28;20449;-78
2022/08/10 05:31:05;;;;;;;6.22;4.20;;;16.60;99.90;;;;;;5040852;28;20562;-78
2022/08/10 05:33:30;;;;;;;6.88;5.07;;;16.60;99.90;;;;;;5040655;28;20480;-78
2022/08/10 05:35:58;;;;;;;4.38;3.95;;;16.60;99.90;;;;;;5057424;28;20035;-78
2022/08/10 05:38:26;;;;;;;5.72;4.45;;;16.60;99.90;;;;;;5058137;28;20130;-78
2022/08/10 05:40:53;;;;;;;5.80;4.97;;;16.70;99.90;;;;;;5058368;28;20596;-78
2022/08/10 05:43:20;;;;;;;9.27;5.43;;;16.70;99.90;;;;;;5058573;28;20041;-77
2022/08/10 05:45:47;;;;;;;6.38;4.13;;;16.70;99.90;;;;;;5040804;28;20271;-78
2022/08/10 05:48:13;;;;;;;8.05;4.65;;;16.70;99.90;;;;;;5041045;28;20600;-78
2022/08/10 05:50:39;;;;;;;7.10;4.65;;;16.70;99.90;;;;;;5057501;28;20044;-78
2022/08/10 05:53:05;;;;;;;7.95;5.30;;;16.80;99.90;;;;;;5058391;28;20041;-78
2022/08/10 05:55:31;;;;;;;6.88;5.05;;;16.80;99.90;;;;;;5058192;28;20040;-78
2022/08/10 05:57:58;;;;;;;6.78;5.13;;;16.80;99.90;;;;;;5058357;28;20052;-78
2022/08/10 06:00:25;;;;;;;7.50;4.50;;;16.90;99.90;;;;;;5058136;28;20044;-78
2022/08/10 06:02:59;;;;;;;5.22;4.47;;;16.90;99.90;;;;;;5058247;28;20184;-78
2022/08/10 06:05:26;;;;;;;6.32;4.95;;;16.90;99.90;;;;;;5057049;28;20461;-78
2022/08/10 06:08:02;;;;;;;7.57;4.70;;;17.00;99.90;;;;;;5058118;28;20040;-77
2022/08/10 06:10:29;;;;;;;6.43;4.63;;;17.00;99.90;;;;;;5058416;28;20483;-78
2022/08/10 06:15:43;;;;;;;5.80;4.53;;;17.10;99.90;;;;;;5058519;28;20153;-78
2022/08/10 06:18:14;;;;;;;7.35;5.38;;;17.20;99.90;;;;;;5058018;28;20125;-78
2022/08/10 06:20:41;;;;;;;6.07;4.75;;;17.20;99.90;;;;;;5039551;28;20347;-78
2022/08/10 06:23:07;;;;;;;13.25;4.43;;;17.20;99.90;;;;;;5058398;28;20075;-78
2022/08/10 06:25:33;;;;;;;5.15;3.83;;;17.30;99.90;;;;;;5039858;28;20491;-78
2022/08/10 06:28:00;;;;;;;5.38;3.70;;;17.30;99.90;;;;;;5039650;28;20127;-78
2022/08/10 06:30:27;;;;;;;7.22;4.63;;;17.40;99.90;;;;;;5057748;28;20128;-78
2022/08/10 06:32:55;;;;;;;8.88;4.07;;;17.50;99.90;;;;;;5058392;28;20290;-78
2022/08/10 06:35:24;;;;;;;6.15;4.65;;;17.50;99.90;;;;;;5057701;28;20044;-78
2022/08/10 06:37:50;;;;;;;5.70;4.40;;;17.50;99.90;;;;;;5062003;28;20093;-78
2022/08/10 06:40:16;;;;;;;6.75;4.72;;;17.60;99.90;;;;;;5044442;28;20119;-78
2022/08/10 06:42:45;;;;;;;5.88;4.00;;;17.60;99.90;;;;;;5061516;28;20140;-78
2022/08/10 06:45:20;;;;;;;8.23;4.15;;;17.60;99.90;;;;;;5043494;28;20406;-77
2022/08/10 06:47:52;;;;;;;5.68;4.35;;;17.70;99.90;;;;;;5043628;28;20071;-78
2022/08/10 06:50:37;;;;;;;5.80;4.28;;;17.70;99.90;;;;;;5060997;28;20041;-78
2022/08/10 06:53:08;;;;;;;10.07;4.53;;;17.80;99.90;;;;;;5043524;28;20037;-78
2022/08/10 06:55:34;;;;;;;5.75;4.50;;;17.80;99.90;;;;;;5061121;28;20517;-78
2022/08/10 06:58:02;;;;;;;3.63;3.25;;;17.80;99.90;;;;;;5043632;28;20071;-78
2022/08/10 07:00:31;;;;;;;5.97;4.28;;;17.80;99.90;;;;;;5043770;28;20422;-78
2022/08/10 07:03:02;;;;;;;6.20;4.30;;;17.90;99.90;;;;;;5043147;28;20119;-78
2022/08/10 07:05:33;;;;;;;3.95;3.28;;;18.00;99.90;;;;;;5060176;28;20060;-78
2022/08/10 07:08:01;;;;;;;3.97;2.83;;;18.00;99.90;;;;;;5061180;28;20052;-78
2022/08/10 07:10:27;;;;;;;6.40;3.85;;;18.00;99.90;;;;;;5043321;28;20342;-78
2022/08/10 07:12:58;;;;;;;4.47;3.45;;;18.10;99.90;;;;;;5043432;28;20101;-78
2022/08/10 07:15:25;;;;;;;5.00;3.92;;;18.10;99.90;;;;;;5060927;28;20360;-78
2022/08/10 07:17:52;;;;;;;7.05;4.43;;;18.20;99.90;;;;;;5061725;28;20044;-78
2022/08/10 07:20:19;;;;;;;3.83;3.40;;;18.20;99.90;;;;;;5060331;28;20075;-78
2022/08/10 07:22:51;;;;;;;5.05;3.53;;;18.30;99.90;;;;;;5060992;28;20150;-78
2022/08/10 07:25:21;;;;;;;3.20;2.95;;;18.40;99.90;;;;;;5061299;28;20055;-78
2022/08/10 07:27:48;;;;;;;4.47;3.42;;;18.40;99.90;;;;;;5060258;28;20231;-78
2022/08/10 07:30:14;;;;;;;6.50;3.78;;;18.40;99.90;;;;;;5060632;28;20491;-78
2022/08/10 07:32:43;;;;;;;10.20;4.03;;;18.40;99.90;;;;;;5042623;28;20031;-78
2022/08/10 07:35:12;;;;;;;2.67;2.42;;;18.50;99.90;;;;;;5059388;28;20090;-78
2022/08/10 07:37:39;;;;;;;3.88;2.78;;;18.60;99.90;;;;;;5060739;28;20363;-78
2022/08/10 07:40:07;;;;;;;5.32;3.47;;;18.60;99.90;;;;;;5061106;28;20059;-78
2022/08/10 07:42:35;;;;;;;7.22;3.60;;;18.60;99.90;;;;;;5060181;28;20048;-78
2022/08/10 07:45:01;;;;;;;7.68;3.03;;;18.70;99.90;;;;;;5060471;28;20047;-78
2022/08/10 07:47:36;;;;;;;3.92;3.00;;;18.70;99.90;;;;;;5059494;28;20067;-78
2022/08/10 07:50:04;;;;;;;3.17;2.75;;;18.80;99.90;;;;;;5059617;28;20080;-77
2022/08/10 07:52:32;;;;;;;4.78;3.00;;;18.80;99.90;;;;;;5060583;28;20033;-78
2022/08/10 07:55:01;;;;;;;3.88;2.70;;;18.80;99.90;;;;;;5060159;28;20487;-78
2022/08/10 07:57:29;;;;;;;12.02;3.55;;;18.90;99.90;;;;;;5042598;28;20056;-78
2022/08/10 07:59:58;;;;;;;4.32;2.97;;;18.90;99.90;;;;;;5060820;28;20044;-78
2022/08/10 08:02:37;;;;;;;4.70;3.38;;;19.00;99.90;;;;;;5060616;28;20040;-78
2022/08/10 08:05:08;;;;;;;3.28;2.97;;;19.00;99.90;;;;;;5059196;28;20448;-78
2022/08/10 08:07:36;;;;;;;3.10;2.80;;;19.00;99.90;;;;;;5059646;28;20480;-78
2022/08/10 08:10:03;;;;;;;10.57;2.95;;;19.00;99.90;;;;;;5060131;28;20068;-78
2022/08/10 08:12:30;;;;;;;5.07;3.38;;;19.10;99.90;;;;;;5059818;28;20215;-78
2022/08/10 08:14:58;;;;;;;3.45;2.60;;;19.10;99.90;;;;;;5060096;28;20336;-78
2022/08/10 08:17:25;;;;;;;6.03;3.45;;;19.20;99.90;;;;;;5060444;28;20032;-78
2022/08/10 08:19:53;;;;;;;6.50;4.22;;;19.20;99.90;;;;;;5058416;28;20549;-78
2022/08/10 08:22:19;;;;;;;3.08;2.65;;;19.30;99.90;;;;;;5041771;28;20036;-78
2022/08/10 08:24:45;;;;;;;3.55;3.08;;;19.30;99.90;;;;;;5059728;28;20123;-78
2022/08/10 08:27:15;;;;;;;2.70;2.42;;;19.30;99.90;;;;;;5059166;28;20037;-78
2022/08/10 08:29:43;;;;;;;5.55;3.60;;;19.40;99.90;;;;;;5060068;28;20407;-78
2022/08/10 08:32:10;;;;;;;4.97;4.32;;;19.40;99.90;;;;;;5059836;28;20068;-78
2022/08/10 08:34:39;;;;;;;4.00;2.97;;;19.40;99.90;;;;;;5040448;28;20075;-78
2022/08/10 08:37:07;;;;;;;5.10;3.53;;;19.50;99.90;;;;;;5059561;28;20056;-78
2022/08/10 08:39:35;;;;;;;3.22;2.88;;;19.50;99.90;;;;;;5059784;28;20120;-78
2022/08/10 08:42:27;;;;;;;6.43;2.75;;;19.50;99.90;;;;;;5059390;28;20087;-78
2022/08/10 08:45:20;;;;;;;4.35;3.03;;;19.70;99.90;;;;;;5036533;28;20049;-78
2022/08/10 08:48:11;;;;;;;5.70;3.50;;;19.60;99.90;;;;;;5041685;28;20949;-78
2022/08/10 08:50:49;;;;;;;5.32;2.45;;;19.70;99.90;;;;;;5040288;28;20052;-79
2022/08/10 08:53:14;;;;;;;4.53;3.90;;;19.70;99.90;;;;;;5058848;28;20049;-78
2022/08/10 08:56:13;;;;;;;3.58;3.05;;;19.80;99.90;;;;;;5059183;28;20036;-78
2022/08/10 08:59:02;;;;;;;3.65;3.13;;;19.80;99.90;;;;;;5058823;28;20043;-78
2022/08/10 09:01:54;;;;;;;4.00;3.28;;;19.80;99.90;;;;;;5041844;28;20040;-78
2022/08/10 09:04:51;;;;;;;2.30;2.10;;;19.90;99.90;;;;;;5039864;28;20502;-78
2022/08/10 09:07:42;;;;;;;4.45;3.00;;;19.90;99.90;;;;;;5059089;28;20283;-78
2022/08/10 09:10:32;;;;;;;4.72;3.55;;;20.00;99.90;;;;;;5058575;28;20391;-78
2022/08/10 09:13:26;;;;;;;4.75;3.53;;;20.00;99.90;;;;;;5059303;28;20127;-78
2022/08/10 09:16:16;;;;;;;4.40;2.83;;;20.10;99.90;;;;;;5058988;28;20097;-78
2022/08/10 09:19:03;;;;;;;3.70;2.85;;;20.10;99.90;;;;;;5040131;28;20191;-78
2022/08/10 09:21:53;;;;;;;5.43;3.63;;;20.10;99.90;;;;;;5058755;28;20127;-79
2022/08/10 09:24:44;;;;;;;3.45;2.70;;;20.10;99.90;;;;;;5058555;28;20051;-79
2022/08/10 09:27:23;;;;;;;5.40;3.13;;;20.20;99.90;;;;;;5040646;28;20048;-79
2022/08/10 09:29:56;;;;;;;2.95;2.65;;;20.20;99.90;;;;;;5058367;28;20044;-78
2022/08/10 09:32:51;;;;;;;3.85;2.78;;;20.30;99.90;;;;;;5058629;28;20036;-79
2022/08/10 09:35:32;;;;;;;5.68;2.72;;;20.30;99.90;;;;;;5036902;28;20052;-79
2022/08/10 09:38:22;;;;;;;5.20;2.72;;;20.40;99.90;;;;;;5058933;28;20036;-78
2022/08/10 09:41:12;;;;;;;3.03;2.65;;;20.40;99.90;;;;;;5040554;28;20044;-79
2022/08/10 09:43:46;;;;;;;5.03;3.38;;;20.40;99.90;;;;;;5058582;28;20124;-78
2022/08/10 09:46:24;;;;;;;3.45;2.83;;;20.50;99.90;;;;;;5058372;28;20775;-78
2022/08/10 09:48:57;;;;;;;3.22;2.22;;;20.50;99.90;;;;;;5057816;28;20059;-79
2022/08/10 09:51:41;;;;;;;3.28;2.33;;;20.50;99.90;;;;;;5040344;28;20037;-78
2022/08/10 09:54:38;;;;;;;3.92;2.63;;;20.60;99.90;;;;;;5040273;28;20107;-78
2022/08/10 09:57:27;;;;;;;8.98;2.65;;;20.60;99.90;;;;;;5040170;28;20040;-79
2022/08/10 10:00:11;;;;;;;7.53;2.38;;;20.70;99.90;;;;;;5058405;28;20094;-79
2022/08/10 10:02:55;;;;;;;3.95;2.35;;;20.70;99.90;;;;;;5058175;28;20040;-79
2022/08/10 10:05:24;;;;;;;3.22;1.75;;;20.80;99.90;;;;;;5038821;28;20131;-79
2022/08/10 10:08:01;;;;;;;2.10;1.90;;;20.80;99.90;;;;;;5040266;28;20132;-79
2022/08/10 10:10:39;;;;;;;3.05;2.80;;;20.80;99.90;;;;;;5059837;28;20048;-78
2022/08/10 10:13:10;;;;;;;2.35;2.15;;;20.80;99.90;;;;;;5064679;28;20308;-78
2022/08/10 10:16:00;;;;;;;2.53;2.05;;;20.80;99.90;;;;;;5064583;28;20048;-78
2022/08/10 10:18:44;;;;;;;6.50;2.50;;;20.90;99.90;;;;;;5046091;28;20052;-79
2022/08/10 10:21:28;;;;;;;3.15;2.72;;;20.90;99.90;;;;;;5047036;28;20032;-79
2022/08/10 10:24:13;;;;;;;5.53;2.28;;;21.00;99.90;;;;;;5064091;28;20037;-79
2022/08/10 10:26:53;;;;;;;4.90;2.53;;;21.00;99.90;;;;;;5064385;28;20044;-79
2022/08/10 10:29:39;;;;;;;3.75;2.63;;;21.00;99.90;;;;;;5046142;28;20136;-79
2022/08/10 10:32:24;;;;;;;3.00;2.13;;;21.10;99.90;;;;;;5064841;28;20252;-79
2022/08/10 10:34:55;;;;;;;2.97;2.17;;;21.10;99.90;;;;;;5045753;28;20047;-78
2022/08/10 10:37:23;;;;;;;3.17;2.65;;;21.20;99.90;;;;;;5030171;28;20366;-79
2022/08/10 10:39:53;;;;;;;2.67;1.90;;;21.20;99.90;;;;;;5046792;28;20041;-79
2022/08/10 10:42:48;;;;;;;2.75;2.40;;;21.20;99.90;;;;;;5064556;28;20048;-79
2022/08/10 10:45:28;;;;;;;4.72;3.33;;;21.30;99.90;;;;;;5064391;28;20566;-79
2022/08/10 10:48:32;;;;;;;17.30;3.42;;;21.30;99.90;;;;;;5064296;28;20044;-79
2022/08/10 10:51:24;;;;;;;1.92;1.67;;;21.30;99.90;;;;;;4946504;28;20130;-79
2022/08/10 10:54:28;;;;;;;2.95;1.80;;;21.30;99.90;;;;;;5063313;28;20576;-79
2022/08/10 10:57:06;;;;;;;2.03;1.92;;;21.40;99.90;;;;;;5005666;28;20478;-79
2022/08/10 10:59:43;;;;;;;2.75;1.70;;;21.40;99.90;;;;;;5064344;28;20037;-79
2022/08/10 11:02:32;;;;;;;1.77;1.67;;;21.50;99.90;;;;;;5064661;28;20045;-79
2022/08/10 11:05:01;;;;;;;2.20;2.00;;;21.60;99.90;;;;;;5028608;28;20053;-78
2022/08/10 11:07:34;;;;;;;3.80;2.47;;;21.50;99.90;;;;;;5046819;28;20434;-79
2022/08/10 11:10:18;;;;;;;1.60;1.50;;;21.60;99.90;;;;;;5064481;28;20049;-79
2022/08/10 11:13:27;;;;;;;3.72;2.13;;;21.70;99.90;;;;;;5064259;28;20051;-79
2022/08/10 11:16:02;;;;;;;2.10;1.85;;;21.70;99.90;;;;;;5046298;28;20453;-79
2022/08/10 11:18:57;;;;;;;4.57;2.00;;;21.70;99.90;;;;;;5063362;28;20041;-79
2022/08/10 11:21:41;;;;;;;1.77;1.42;;;21.70;99.90;;;;;;5052453;28;20051;-79
2022/08/10 11:24:15;;;;;;;1.95;1.35;;;21.80;99.90;;;;;;5043011;28;20067;-79
2022/08/10 11:27:12;;;;;;;3.08;2.13;;;21.80;99.90;;;;;;5042890;28;20048;-79
2022/08/10 11:30:10;;;;;;;2.83;1.73;;;21.80;99.90;;;;;;5042467;28;20044;-79
2022/08/10 11:32:50;;;;;;;2.00;1.80;;;21.80;99.90;;;;;;5060915;28;20119;-79
2022/08/10 11:35:49;;;;;;;2.15;1.95;;;21.80;99.90;;;;;;5042002;28;20059;-79
2022/08/10 11:38:39;;;;;;;1.80;1.48;;;21.90;99.90;;;;;;5061035;28;20263;-79
2022/08/10 11:41:37;;;;;;;1.65;1.45;;;22.10;99.90;;;;;;5043259;28;20277;-79
2022/08/10 11:44:06;;;;;;;2.75;1.30;;;22.10;99.90;;;;;;5042526;28;20502;-79
2022/08/10 11:46:41;;;;;;;1.42;1.30;;;22.10;99.90;;;;;;5060537;28;20040;-79
2022/08/10 11:49:32;;;;;;;1.52;1.40;;;22.10;99.90;;;;;;5059810;28;20090;-79
2022/08/10 11:52:33;;;;;;;1.33;1.25;;;22.20;99.90;;;;;;5060776;28;20116;-79
2022/08/10 11:55:09;;;;;;;2.90;1.73;;;22.20;99.90;;;;;;5042511;28;20056;-79
2022/08/10 11:57:36;;;;;;;2.85;1.70;;;22.10;99.90;;;;;;5060596;28;20037;-79
2022/08/10 12:00:06;;;;;;;1.48;1.20;;;22.20;99.90;;;;;;5060149;28;20048;-79
2022/08/10 12:02:43;;;;;;;1.73;1.45;;;22.20;99.90;;;;;;5060172;28;20114;-79
2022/08/10 12:05:15;;;;;;;1.27;1.05;;;22.30;99.90;;;;;;5059165;28;20078;-79
2022/08/10 12:07:45;;;;;;;1.38;1.27;;;22.30;99.90;;;;;;5060524;28;20094;-79
2022/08/10 12:10:12;;;;;;;2.38;1.70;;;22.40;99.90;;;;;;5059749;28;20045;-79
2022/08/10 12:12:45;;;;;;;1.73;1.48;;;22.50;99.90;;;;;;5060750;28;20051;-79
2022/08/10 12:15:39;;;;;;;4.72;1.45;;;22.50;99.90;;;;;;5041983;28;20041;-79
2022/08/10 12:18:14;;;;;;;1.40;1.00;;;22.50;99.90;;;;;;5049456;28;20052;-79
2022/08/10 12:20:42;;;;;;;6.22;1.60;;;22.50;99.90;;;;;;5060660;28;20047;-79
2022/08/10 12:23:18;;;;;;;1.95;1.27;;;22.60;99.90;;;;;;5060438;28;20060;-78
2022/08/10 12:26:15;;;;;;;1.65;1.55;;;22.60;99.90;;;;;;5059533;28;20048;-79
2022/08/10 12:28:58;;;;;;;2.42;1.80;;;22.70;99.90;;;;;;5060181;28;20106;-79
2022/08/10 12:31:39;;;;;;;1.83;1.40;;;22.70;99.90;;;;;;5060134;28;20045;-78
2022/08/10 12:34:22;;;;;;;3.90;1.95;;;22.70;99.90;;;;;;5058189;28;20040;-79
2022/08/10 12:36:59;;;;;;;2.80;2.00;;;22.70;99.90;;;;;;5041643;28;20068;-78
2022/08/10 12:39:28;;;;;;;2.08;1.67;;;22.70;99.90;;;;;;5059517;28;20044;-79
2022/08/10 12:42:05;;;;;;;1.83;1.67;;;22.80;99.90;;;;;;5059783;28;20116;-79
2022/08/10 12:45:00;;;;;;;2.17;1.83;;;22.80;99.90;;;;;;5059155;28;20568;-79
2022/08/10 12:47:39;;;;;;;2.03;1.60;;;22.80;99.90;;;;;;5059370;28;20398;-79
2022/08/10 12:50:20;;;;;;;4.78;2.75;;;22.90;99.90;;;;;;5041350;28;20154;-79
2022/08/10 12:53:13;;;;;;;2.28;1.80;;;22.90;99.90;;;;;;5041080;28;20116;-79
2022/08/10 12:55:40;;;;;;;1.67;1.25;;;22.90;99.90;;;;;;5059547;28;20040;-79
2022/08/10 12:58:10;;;;;;;4.32;1.90;;;23.00;99.90;;;;;;5041082;28;20448;-79
2022/08/10 13:00:37;;;;;;;2.00;1.83;;;23.00;99.90;;;;;;5059166;28;20557;-79
2022/08/10 13:03:05;;;;;;;3.13;2.60;;;23.00;99.90;;;;;;5058140;28;20499;-79
2022/08/10 13:05:32;;;;;;;2.75;1.80;;;23.00;99.90;;;;;;5040562;28;20284;-79
2022/08/10 13:10:58;;;;;;;1.98;1.65;;;23.00;99.90;;;;;;5058988;28;20106;-79
2022/08/10 13:13:34;;;;;;;2.63;2.10;;;23.00;99.90;;;;;;5059012;28;20521;-79
2022/08/10 13:16:00;;;;;;;1.95;1.73;;;23.10;99.90;;;;;;5058376;28;20028;-79
2022/08/10 13:18:35;;;;;;;3.70;2.67;;;23.10;99.90;;;;;;5058012;28;20362;-79
2022/08/10 13:21:09;;;;;;;5.00;1.95;;;23.20;99.90;;;;;;5058829;28;20080;-79
2022/08/10 13:23:57;;;;;;;3.65;2.42;;;23.30;99.90;;;;;;5058865;28;20040;-79
2022/08/10 13:26:29;;;;;;;2.45;2.25;;;23.30;99.90;;;;;;5040388;28;20057;-79